Estación Meteorológica Peña el Pijo (Robertgarden) [ 01/20/18 04:10:51 CET ]

Fecha Hora Presion(HPa) Temp (°C) Humedad % Rocio (°C) Viento ( m/s) Direccion Lluvia 1Hora(mm) Lluvia 24H(mm) LLuvia Total(mm)
2017-Nov-20 01:01:42 1013.300 1.9 66 -3.8         1468.01
2017-Nov-20 02:05:02 1013.200 0.9 68 -4.4         1468.01
2017-Nov-20 03:01:41 1013.000 0.4 70 -4.4         1468.01
2017-Nov-20 04:04:10 1012.800 0.4 71 -4.3         1468.01
2017-Nov-20 05:01:49 1012.500 -0.1 72 -4.5         1468.01
2017-Nov-20 06:01:39 1012.800 -0.7 74 -4.8         1468.01
2017-Nov-20 07:02:01 1013.300 -0.3 74 -4.4         1468.01
2017-Nov-20 08:01:35 1013.700 -0.2 75 -4.1         1468.01
2017-Nov-20 09:01:51 1013.600 0.4 76 -3.4         1468.01
2017-Nov-20 10:01:36 1013.800 10.4 58 2.5         1468.01
2017-Nov-20 11:01:27 1013.900 16.2 38 1.8         1468.01
2017-Nov-20 12:01:25 1013.500 19.8 27 0.1         1468.01
2017-Nov-20 13:01:47 1012.900 20.8 24 -0.7         1468.01
2017-Nov-20 14:01:48 1012.400 21.9 22 -0.9         1468.01
2017-Nov-20 15:01:50 1011.700 21.9 22 -0.9         1468.01
2017-Nov-20 16:01:50 1011.900 20.4 23 -1.6         1468.01
2017-Nov-20 17:01:48 1011.900 17.0 25 -3.4         1468.01
2017-Nov-20 18:01:49 1012.300 13.9 29 -3.9         1468.01
2017-Nov-20 19:01:40 1013.000 9.8 35 -5.1         1468.01
2017-Nov-20 20:01:56 1013.800 6.3 42 -5.7         1468.01
2017-Nov-20 21:01:52 1014.100 5.1 47 -5.4         1468.01
2017-Nov-20 22:01:54 1014.200 3.7 51 -5.5         1468.01
2017-Nov-20 23:01:57 1014.200 2.6 55 -5.6         1468.01

Temperatura Máxima:21°    Temperatura Mínima:
Presión Máxima:1014.200 Hpa    Presión Mínima:1011.700 Hpa


Volver